createdAt,value
2023-01-07T00:02:08.009Z,101605.09
2023-01-07T00:04:35.821Z,101603.22
2023-01-07T00:07:04.983Z,101598.88
2023-01-07T00:09:32.800Z,101593.72
2023-01-07T00:12:01.076Z,101594.53
2023-01-07T00:14:28.899Z,101592.06
2023-01-07T00:16:56.634Z,101599.31
2023-01-07T00:19:24.700Z,101588.53
2023-01-07T00:21:52.740Z,101591.44
2023-01-07T00:24:22.002Z,101585.22
2023-01-07T00:26:49.827Z,101591.66
2023-01-07T00:29:18.720Z,101587.53
2023-01-07T00:31:46.536Z,101591.88
2023-01-07T00:34:14.571Z,101584.00
2023-01-07T00:36:44.246Z,101582.97
2023-01-07T00:39:15.057Z,101580.47
2023-01-07T00:42:06.477Z,101574.25
2023-01-07T00:44:35.152Z,101566.41
2023-01-07T00:47:03.073Z,101568.06
2023-01-07T00:49:30.930Z,101569.91
2023-01-07T00:51:58.770Z,101563.69
2023-01-07T00:54:26.915Z,101562.06
2023-01-07T00:56:56.089Z,101549.84
2023-01-07T00:59:23.907Z,101550.44
2023-01-07T01:01:51.755Z,101552.31
2023-01-07T01:04:19.750Z,101548.78
2023-01-07T01:06:47.746Z,101547.97
2023-01-07T01:09:15.547Z,101540.94
2023-01-07T01:11:43.368Z,101549.00
2023-01-07T01:14:13.202Z,101540.94
2023-01-07T01:16:41.057Z,101539.47
2023-01-07T01:19:09.027Z,101527.03
2023-01-07T01:21:37.002Z,101534.06
2023-01-07T01:24:05.171Z,101528.69
2023-01-07T01:26:32.919Z,101528.69
2023-01-07T01:29:00.882Z,101529.72
2023-01-07T01:31:30.157Z,101517.09
2023-01-07T01:33:59.905Z,101513.56
2023-01-07T01:36:28.070Z,101514.41
2023-01-07T01:38:57.340Z,101494.13
2023-01-07T01:41:25.263Z,101507.34
2023-01-07T01:43:53.134Z,101500.53
2023-01-07T01:46:29.030Z,101508.41
2023-01-07T01:49:03.857Z,101511.91
2023-01-07T01:51:37.519Z,101518.34
2023-01-07T01:54:08.306Z,101508.81
2023-01-07T01:56:40.034Z,101504.47
2023-01-07T01:59:11.234Z,101506.94
2023-01-07T02:01:39.538Z,101509.84
2023-01-07T02:04:12.172Z,101503.66
2023-01-07T02:06:46.076Z,101506.56
2023-01-07T02:09:14.606Z,101509.25
2023-01-07T02:11:50.446Z,101506.56
2023-01-07T02:14:37.702Z,101502.22
2023-01-07T02:17:08.148Z,101503.25
2023-01-07T02:20:19.892Z,101500.78
2023-01-07T02:23:28.580Z,101501.59
2023-01-07T02:26:26.249Z,101505.13
2023-01-07T02:29:17.080Z,101490.81
2023-01-07T02:32:20.089Z,101494.56
2023-01-07T02:35:01.401Z,101494.56
2023-01-07T02:37:36.463Z,101495.59
2023-01-07T02:40:12.756Z,101495.81
2023-01-07T02:42:55.232Z,101494.97
2023-01-07T02:45:30.809Z,101496.63
2023-01-07T02:48:02.613Z,101493.13
2023-01-07T02:50:30.378Z,101489.59
2023-01-07T02:52:58.215Z,101486.50
2023-01-07T02:55:40.393Z,101489.81
2023-01-07T02:58:34.098Z,101489.59
2023-01-07T03:01:19.210Z,101483.16
2023-01-07T03:04:04.362Z,101474.28
2023-01-07T03:06:49.384Z,101486.91
2023-01-07T03:09:24.140Z,101476.97
2023-01-07T03:12:01.900Z,101471.56
2023-01-07T03:14:39.715Z,101470.75
2023-01-07T03:17:10.326Z,101469.72
2023-01-07T03:19:43.034Z,101463.72
2023-01-07T03:22:12.468Z,101456.25
2023-01-07T03:24:41.797Z,101455.44
2023-01-07T03:27:10.410Z,101453.78
2023-01-07T03:29:38.294Z,101449.44
2023-01-07T03:32:11.571Z,101450.25
2023-01-07T03:34:41.739Z,101448.38
2023-01-07T03:37:12.806Z,101434.56
2023-01-07T03:39:41.713Z,101442.38
2023-01-07T03:42:28.711Z,101445.28
2023-01-07T03:44:57.010Z,101443.66
2023-01-07T03:47:26.109Z,101436.59
2023-01-07T03:49:55.389Z,101446.34
2023-01-07T03:52:23.230Z,101436.59
2023-01-07T03:54:51.230Z,101435.56
2023-01-07T03:57:19.035Z,101428.53
2023-01-07T03:59:47.086Z,101432.88
2023-01-07T04:02:15.068Z,101428.53
2023-01-07T04:04:42.969Z,101428.53
2023-01-07T04:07:13.726Z,101419.63
2023-01-07T04:09:41.724Z,101420.47
2023-01-07T04:12:09.540Z,101409.06
2023-01-07T04:14:37.317Z,101411.78
2023-01-07T04:17:05.134Z,101403.69
2023-01-07T04:19:33.547Z,101399.13
2023-01-07T04:22:01.632Z,101401.81
2023-01-07T04:24:30.968Z,101396.44
2023-01-07T04:26:58.769Z,101388.38
2023-01-07T04:29:26.608Z,101390.22
2023-01-07T04:31:54.640Z,101377.81
2023-01-07T04:34:22.473Z,101378.63
2023-01-07T04:36:50.271Z,101380.28
2023-01-07T04:39:18.191Z,101368.72
2023-01-07T04:41:47.410Z,101373.25
2023-01-07T04:44:17.637Z,101373.25
2023-01-07T04:46:45.556Z,101364.13
2023-01-07T04:49:13.359Z,101362.50
2023-01-07T04:51:41.593Z,101362.50
2023-01-07T04:54:09.356Z,101361.66
2023-01-07T04:56:37.180Z,101351.72
2023-01-07T04:59:06.357Z,101350.91
2023-01-07T05:01:34.336Z,101349.25
2023-01-07T05:04:02.293Z,101351.13
2023-01-07T05:06:30.157Z,101348.41
2023-01-07T05:08:58.135Z,101345.72
2023-01-07T05:11:25.877Z,101343.25
2023-01-07T05:13:53.733Z,101337.88
2023-01-07T05:16:23.021Z,101334.56
2023-01-07T05:18:50.920Z,101337.03
2023-01-07T05:21:19.446Z,101335.41
2023-01-07T05:23:47.242Z,101333.53
2023-01-07T05:26:15.061Z,101333.53
2023-01-07T05:28:42.873Z,101321.94
2023-01-07T05:31:10.819Z,101330.00
2023-01-07T05:33:40.000Z,101330.84
2023-01-07T05:36:08.391Z,101320.06
2023-01-07T05:38:36.235Z,101313.88
2023-01-07T05:41:04.226Z,101321.94
2023-01-07T05:43:32.504Z,101319.25
2023-01-07T05:46:00.376Z,101309.78
2023-01-07T05:48:28.222Z,101326.28
2023-01-07T05:50:57.362Z,101321.13
2023-01-07T05:53:25.200Z,101323.19
2023-01-07T05:55:57.099Z,101320.28
2023-01-07T05:58:25.034Z,101321.31
2023-01-07T06:00:56.806Z,101313.88
2023-01-07T06:03:24.686Z,101311.38
2023-01-07T06:05:52.443Z,101307.88
2023-01-07T06:08:21.796Z,101307.88
2023-01-07T06:10:49.575Z,101308.09
2023-01-07T06:13:17.340Z,101305.41
2023-01-07T06:15:45.253Z,101304.56
2023-01-07T06:18:13.109Z,101298.16
2023-01-07T06:20:40.925Z,101297.09
2023-01-07T06:23:10.220Z,101297.09
2023-01-07T06:25:39.451Z,101285.50
2023-01-07T06:28:07.198Z,101276.63
2023-01-07T06:30:34.948Z,101261.38
2023-01-07T06:33:02.768Z,101277.22
2023-01-07T06:35:30.541Z,101280.13
2023-01-07T06:37:58.493Z,101267.50
2023-01-07T06:40:26.242Z,101265.03
2023-01-07T06:42:55.410Z,101258.00
2023-01-07T06:45:23.249Z,101258.00
2023-01-07T06:47:51.028Z,101263.59
2023-01-07T06:50:19.039Z,101252.81
2023-01-07T06:52:46.974Z,101254.69
2023-01-07T06:55:14.798Z,101254.69
2023-01-07T06:57:42.702Z,101249.31
2023-01-07T07:00:13.675Z,101247.66
2023-01-07T07:02:41.532Z,101245.78
2023-01-07T07:05:09.701Z,101246.84
2023-01-07T07:07:37.656Z,101244.97
2023-01-07T07:10:07.538Z,101253.25
2023-01-07T07:12:35.585Z,101247.06
2023-01-07T07:15:03.363Z,101237.34
2023-01-07T07:17:32.647Z,101241.88
2023-01-07T07:20:01.602Z,101245.41
2023-01-07T07:22:29.417Z,101234.84
2023-01-07T07:24:57.391Z,101234.03
2023-01-07T07:27:25.264Z,101226.78
2023-01-07T07:29:53.172Z,101223.06
2023-01-07T07:32:20.969Z,101210.63
2023-01-07T07:34:50.091Z,101217.66
2023-01-07T07:37:17.856Z,101217.44
2023-01-07T07:39:45.802Z,101220.19
2023-01-07T07:42:13.608Z,101210.03
2023-01-07T07:44:41.366Z,101209.38
2023-01-07T07:47:10.309Z,101203.56
2023-01-07T07:49:38.099Z,101215.97
2023-01-07T07:52:07.609Z,101207.69
2023-01-07T07:54:36.129Z,101203.72
2023-01-07T07:57:03.993Z,101204.16
2023-01-07T07:59:32.223Z,101187.47
2023-01-07T08:02:00.096Z,101200.44
2023-01-07T08:04:29.134Z,101199.16
2023-01-07T08:06:57.087Z,101194.19
2023-01-07T08:09:26.254Z,101179.47
2023-01-07T08:11:54.040Z,101179.69
2023-01-07T08:14:21.885Z,101173.84
2023-01-07T08:16:49.826Z,101179.22
2023-01-07T08:19:17.646Z,101180.06
2023-01-07T08:21:45.443Z,101182.38
2023-01-07T08:24:13.347Z,101176.16
2023-01-07T08:26:42.612Z,101173.91
2023-01-07T08:29:10.402Z,101175.56
2023-01-07T08:31:38.247Z,101173.47
2023-01-07T08:34:06.072Z,101169.94
2023-01-07T08:36:33.862Z,101165.00
2023-01-07T08:39:01.792Z,101155.13
2023-01-07T08:41:29.595Z,101165.00
2023-01-07T08:43:58.953Z,101158.19
2023-01-07T08:46:26.785Z,101139.41
2023-01-07T08:48:54.789Z,101153.19
2023-01-07T08:51:22.574Z,101149.06
2023-01-07T08:53:50.856Z,101151.78
2023-01-07T08:56:18.643Z,101150.94
2023-01-07T08:58:46.397Z,101149.06
2023-01-07T09:01:15.723Z,101150.50
2023-01-07T09:03:43.688Z,101152.16
2023-01-07T09:06:11.552Z,101151.94
2023-01-07T09:08:40.446Z,101151.34
2023-01-07T09:11:08.211Z,101138.09
2023-01-07T09:13:36.065Z,101126.84
2023-01-07T09:16:03.944Z,101137.31
2023-01-07T09:18:33.359Z,101139.56
2023-01-07T09:21:01.322Z,101127.56
2023-01-07T09:23:29.648Z,101123.97
2023-01-07T09:25:57.413Z,101121.28
2023-01-07T09:28:25.265Z,101120.47
2023-01-07T09:30:54.318Z,101124.19
2023-01-07T09:33:23.260Z,101115.06
2023-01-07T09:35:52.553Z,101112.69
2023-01-07T09:38:20.381Z,101112.03
2023-01-07T09:40:48.817Z,101110.63
2023-01-07T09:43:22.418Z,101107.69
2023-01-07T09:45:53.898Z,101104.41
2023-01-07T09:48:26.105Z,101098.56
2023-01-07T09:51:01.761Z,101094.47
2023-01-07T09:53:34.495Z,101096.56
2023-01-07T09:56:10.887Z,101087.66
2023-01-07T09:58:43.231Z,101089.06
2023-01-07T10:01:24.546Z,101079.50
2023-01-07T10:04:01.412Z,101072.59
2023-01-07T10:06:43.978Z,101072.06
2023-01-07T10:09:23.820Z,101060.00
2023-01-07T10:12:00.481Z,101063.59
2023-01-07T10:14:49.606Z,101060.09
2023-01-07T10:17:29.599Z,101052.69
2023-01-07T10:20:03.135Z,101043.28
2023-01-07T10:22:36.082Z,101034.88
2023-01-07T10:25:13.618Z,101036.47
2023-01-07T10:27:46.326Z,101027.94
2023-01-07T10:30:19.577Z,101017.28
2023-01-07T10:32:49.426Z,101023.06
2023-01-07T10:35:21.473Z,101003.81
2023-01-07T10:37:50.867Z,101002.41
2023-01-07T10:40:29.457Z,100999.22
2023-01-07T10:43:02.344Z,100988.25
2023-01-07T10:45:56.839Z,100980.63
2023-01-07T10:48:54.443Z,100974.03
2023-01-07T10:51:41.601Z,100975.41
2023-01-07T10:54:26.603Z,100978.19
2023-01-07T10:56:59.101Z,100945.19
2023-01-07T10:59:27.082Z,100953.22
2023-01-07T11:01:57.726Z,100956.13
2023-01-07T11:04:26.883Z,100950.16
2023-01-07T11:06:59.251Z,100945.81
2023-01-07T11:09:31.669Z,100943.34
2023-01-07T11:12:03.006Z,100934.41
2023-01-07T11:14:35.305Z,100939.59
2023-01-07T11:17:11.829Z,100941.47
2023-01-07T11:19:46.054Z,100935.28
2023-01-07T11:22:30.273Z,100930.69
2023-01-07T11:25:00.535Z,100929.03
2023-01-07T11:27:30.441Z,100922.63
2023-01-07T11:30:01.256Z,100913.72
2023-01-07T11:32:32.180Z,100896.94
2023-01-07T11:35:01.953Z,100901.09
2023-01-07T11:37:35.929Z,100894.03
2023-01-07T11:40:23.546Z,100887.63
2023-01-07T11:42:54.523Z,100883.06
2023-01-07T11:45:24.877Z,100876.03
2023-01-07T11:48:07.911Z,100850.13
2023-01-07T11:50:38.389Z,100868.25
2023-01-07T11:53:25.079Z,100867.47
2023-01-07T11:56:00.533Z,100861.38
2023-01-07T11:58:31.388Z,100861.34
2023-01-07T12:01:14.231Z,100857.16
2023-01-07T12:03:43.916Z,100851.16
2023-01-07T12:06:19.870Z,100847.06
2023-01-07T12:09:02.267Z,100847.19
2023-01-07T12:11:35.676Z,100838.66
2023-01-07T12:14:08.718Z,100827.75
2023-01-07T12:16:37.284Z,100825.50
2023-01-07T12:19:24.267Z,100823.06
2023-01-07T12:22:03.830Z,100816.97
2023-01-07T12:25:09.645Z,100813.34
2023-01-07T12:27:50.621Z,100808.38
2023-01-07T12:30:44.873Z,100802.06
2023-01-07T12:33:24.231Z,100800.78
2023-01-07T12:35:53.309Z,100803.38
2023-01-07T12:38:27.052Z,100800.78
2023-01-07T12:40:57.831Z,100788.81
2023-01-07T12:43:33.332Z,100768.59
2023-01-07T12:46:03.586Z,100782.69
2023-01-07T12:48:40.575Z,100766.88
2023-01-07T12:51:16.293Z,100770.06
2023-01-07T12:53:47.818Z,100746.47
2023-01-07T12:56:20.571Z,100767.28
2023-01-07T12:58:56.814Z,100744.19
2023-01-07T13:01:30.063Z,100741.75
2023-01-07T13:04:09.540Z,100745.47
2023-01-07T13:06:44.592Z,100711.25
2023-01-07T13:09:28.736Z,100730.38
2023-01-07T13:12:41.842Z,100727.56
2023-01-07T13:15:17.420Z,100717.88
2023-01-07T13:17:45.224Z,100713.47
2023-01-07T13:20:14.209Z,100708.91
2023-01-07T13:22:45.769Z,100699.63
2023-01-07T13:25:36.203Z,100706.13
2023-01-07T13:28:29.693Z,100687.81
2023-01-07T13:31:17.759Z,100689.63
2023-01-07T13:33:54.776Z,100680.97
2023-01-07T13:36:31.326Z,100673.69
2023-01-07T13:39:24.612Z,100664.09
2023-01-07T13:42:02.981Z,100666.00
2023-01-07T13:44:57.087Z,100657.31
2023-01-07T13:47:32.331Z,100653.63
2023-01-07T13:50:03.277Z,100643.63
2023-01-07T13:52:33.279Z,100651.75
2023-01-07T13:55:02.892Z,100642.50
2023-01-07T13:57:47.219Z,100625.19
2023-01-07T14:00:43.520Z,100629.78
2023-01-07T14:03:34.171Z,100619.78
2023-01-07T14:06:44.544Z,100613.44
2023-01-07T14:09:34.858Z,100600.81
2023-01-07T14:12:35.643Z,100605.09
2023-01-07T14:15:24.657Z,100616.31
2023-01-07T14:18:06.980Z,100616.13
2023-01-07T14:20:46.853Z,100615.88
2023-01-07T14:23:27.493Z,100610.25
2023-01-07T14:26:09.909Z,100601.75
2023-01-07T14:29:09.597Z,100599.81
2023-01-07T14:31:38.485Z,100602.09
2023-01-07T14:34:09.261Z,100588.53
2023-01-07T14:37:13.420Z,100608.63
2023-01-07T14:39:44.634Z,100590.22
2023-01-07T14:42:42.181Z,100593.41
2023-01-07T14:45:53.192Z,100588.41
2023-01-07T14:48:45.000Z,100598.63
2023-01-07T14:51:45.943Z,100592.16
2023-01-07T14:54:46.339Z,100604.75
2023-01-07T14:57:29.293Z,100588.41
2023-01-07T15:00:14.013Z,100583.63
2023-01-07T15:03:06.633Z,100582.53
2023-01-07T15:06:09.988Z,100574.03
2023-01-07T15:09:04.064Z,100578.03
2023-01-07T15:11:50.932Z,100570.31
2023-01-07T15:14:45.048Z,100567.53
2023-01-07T15:17:15.533Z,100563.13
2023-01-07T15:19:44.365Z,100566.31
2023-01-07T15:22:41.931Z,100557.41
2023-01-07T15:25:23.655Z,100562.78
2023-01-07T15:27:59.780Z,100555.19
2023-01-07T15:30:41.736Z,100557.06
2023-01-07T15:33:27.308Z,100551.66
2023-01-07T15:35:55.787Z,100546.28
2023-01-07T15:38:30.050Z,100547.09
2023-01-07T15:41:00.009Z,100534.38
2023-01-07T15:43:29.936Z,100532.41
2023-01-07T15:46:04.556Z,100525.94
2023-01-07T15:48:32.431Z,100525.84
2023-01-07T15:51:01.202Z,100511.13
2023-01-07T15:53:30.454Z,100521.91
2023-01-07T15:56:02.039Z,100515.38
2023-01-07T15:58:37.109Z,100513.75
2023-01-07T16:01:08.131Z,100512.97
2023-01-07T16:03:39.627Z,100505.53
2023-01-07T16:06:27.132Z,100511.72
2023-01-07T16:08:55.097Z,100511.25
2023-01-07T16:11:25.553Z,100493.75
2023-01-07T16:13:58.013Z,100500.13
2023-01-07T16:16:28.607Z,100499.38
2023-01-07T16:18:56.982Z,100503.06
2023-01-07T16:21:27.787Z,100495.94
2023-01-07T16:23:56.022Z,100499.94
2023-01-07T16:26:31.580Z,100495.03
2023-01-07T16:29:02.754Z,100486.84
2023-01-07T16:31:32.207Z,100494.94
2023-01-07T16:34:02.214Z,100500.56
2023-01-07T16:36:33.616Z,100493.31
2023-01-07T16:39:19.141Z,100496.56
2023-01-07T16:41:47.145Z,100488.72
2023-01-07T16:44:58.398Z,100487.09
2023-01-07T16:47:29.282Z,100474.50
2023-01-07T16:49:58.294Z,100488.88
2023-01-07T16:52:31.086Z,100488.66
2023-01-07T16:54:58.908Z,100487.00
2023-01-07T16:57:34.424Z,100488.66
2023-01-07T17:00:04.455Z,100491.34
2023-01-07T17:02:39.150Z,100498.94
2023-01-07T17:05:19.009Z,100491.03
2023-01-07T17:07:49.397Z,100494.56
2023-01-07T17:10:23.018Z,100501.28
2023-01-07T17:12:59.879Z,100496.13
2023-01-07T17:15:35.830Z,100488.19
2023-01-07T17:18:30.206Z,100491.03
2023-01-07T17:20:59.666Z,100493.19
2023-01-07T17:23:42.191Z,100500.69
2023-01-07T17:26:19.650Z,100484.44
2023-01-07T17:28:51.734Z,100480.53
2023-01-07T17:31:19.917Z,100477.31
2023-01-07T17:33:49.239Z,100464.41
2023-01-07T17:36:18.972Z,100470.38
2023-01-07T17:38:47.187Z,100469.50
2023-01-07T17:41:30.803Z,100454.41
2023-01-07T17:43:58.623Z,100461.88
2023-01-07T17:46:27.729Z,100451.88
2023-01-07T17:48:57.604Z,100436.00
2023-01-07T17:51:26.470Z,100420.81
2023-01-07T17:53:58.588Z,100433.16
2023-01-07T17:56:26.774Z,100418.47
2023-01-07T17:58:56.076Z,100416.50
2023-01-07T18:01:25.201Z,100406.47
2023-01-07T18:03:54.088Z,100412.59
2023-01-07T18:06:25.250Z,100412.13
2023-01-07T18:08:53.907Z,100424.88
2023-01-07T18:11:41.589Z,100436.38
2023-01-07T18:14:10.884Z,100424.47
2023-01-07T18:16:38.703Z,100423.31
2023-01-07T18:19:06.632Z,100426.50
2023-01-07T18:21:35.828Z,100424.31
2023-01-07T18:24:03.642Z,100419.16
2023-01-07T18:26:31.497Z,100427.47
2023-01-07T18:28:59.283Z,100426.91
2023-01-07T18:31:27.127Z,100421.78
2023-01-07T18:33:55.096Z,100406.97
2023-01-07T18:36:22.898Z,100401.59
2023-01-07T18:38:53.253Z,100400.69
2023-01-07T18:41:21.063Z,100430.50
2023-01-07T18:43:48.857Z,100435.91
2023-01-07T18:46:17.670Z,100436.72
2023-01-07T18:48:45.582Z,100432.38
2023-01-07T18:51:13.413Z,100432.06
2023-01-07T18:53:41.180Z,100441.22
2023-01-07T18:56:11.735Z,100432.78
2023-01-07T18:58:39.781Z,100433.03
2023-01-07T19:01:09.383Z,100435.50
2023-01-07T19:03:38.488Z,100430.91
2023-01-07T19:06:08.010Z,100420.94
2023-01-07T19:08:36.177Z,100430.91
2023-01-07T19:11:06.839Z,100417.09
2023-01-07T19:13:36.132Z,100412.53
2023-01-07T19:16:07.312Z,100416.53
2023-01-07T19:18:35.302Z,100416.78
2023-01-07T19:21:03.663Z,100405.19
2023-01-07T19:23:31.531Z,100415.41
2023-01-07T19:26:00.255Z,100393.66
2023-01-07T19:28:28.405Z,100408.84
2023-01-07T19:30:57.566Z,100411.56
2023-01-07T19:33:25.779Z,100419.06
2023-01-07T19:36:01.749Z,100415.56
2023-01-07T19:38:29.640Z,100419.56
2023-01-07T19:40:57.408Z,100418.72
2023-01-07T19:43:25.238Z,100417.91
2023-01-07T19:45:55.352Z,100418.41
2023-01-07T19:48:25.209Z,100415.13
2023-01-07T19:50:57.477Z,100416.19
2023-01-07T19:53:26.307Z,100405.41
2023-01-07T19:55:55.184Z,100415.63
2023-01-07T19:58:22.977Z,100411.53
2023-01-07T20:00:51.029Z,100409.91
2023-01-07T20:03:18.903Z,100412.34
2023-01-07T20:05:48.249Z,100408.03
2023-01-07T20:08:15.993Z,100411.53
2023-01-07T20:10:43.815Z,100403.69
2023-01-07T20:13:11.617Z,100410.16
2023-01-07T20:15:39.411Z,100414.72
2023-01-07T20:18:07.204Z,100407.44
2023-01-07T20:20:35.121Z,100395.03
2023-01-07T20:23:04.266Z,100397.16
2023-01-07T20:25:32.105Z,100390.16
2023-01-07T20:27:59.894Z,100401.19
2023-01-07T20:30:27.844Z,100390.41
2023-01-07T20:32:55.643Z,100382.00
2023-01-07T20:35:24.768Z,100382.34
2023-01-07T20:37:52.550Z,100386.09
2023-01-07T20:40:21.740Z,100391.47
2023-01-07T20:42:49.528Z,100377.44
2023-01-07T20:45:17.500Z,100369.34
2023-01-07T20:47:45.420Z,100379.31
2023-01-07T20:50:15.358Z,100377.69
2023-01-07T20:52:43.131Z,100381.44
2023-01-07T20:55:11.318Z,100379.78
2023-01-07T20:57:40.496Z,100371.94
2023-01-07T21:00:09.381Z,100375.47
2023-01-07T21:02:37.396Z,100371.94
2023-01-07T21:05:05.807Z,100375.72
2023-01-07T21:07:33.584Z,100373.25
2023-01-07T21:10:01.344Z,100370.81
2023-01-07T21:12:29.108Z,100368.13
2023-01-07T21:14:58.457Z,100369.16
2023-01-07T21:17:26.240Z,100362.16
2023-01-07T21:19:54.016Z,100369.16
2023-01-07T21:22:22.063Z,100367.53
2023-01-07T21:24:49.879Z,100364.84
2023-01-07T21:27:17.826Z,100354.72
2023-01-07T21:29:45.632Z,100352.34
2023-01-07T21:32:14.944Z,100355.13
2023-01-07T21:34:42.873Z,100362.41
2023-01-07T21:37:10.649Z,100347.28
2023-01-07T21:39:39.961Z,100355.38
2023-01-07T21:42:09.251Z,100355.63
2023-01-07T21:44:37.224Z,100348.94
2023-01-07T21:47:05.184Z,100353.50
2023-01-07T21:49:34.453Z,100344.38
2023-01-07T21:52:02.304Z,100331.97
2023-01-07T21:54:30.113Z,100342.97
2023-01-07T21:56:57.909Z,100341.91
2023-01-07T21:59:25.693Z,100345.41
2023-01-07T22:01:53.668Z,100349.16
2023-01-07T22:04:21.568Z,100340.28
2023-01-07T22:06:50.842Z,100322.16
2023-01-07T22:09:18.762Z,100343.06
2023-01-07T22:11:46.551Z,100346.81
2023-01-07T22:14:17.303Z,100348.69
2023-01-07T22:16:47.418Z,100346.47
2023-01-07T22:19:16.865Z,100338.66
2023-01-07T22:21:44.674Z,100337.81
2023-01-07T22:24:14.458Z,100338.31
2023-01-07T22:26:42.955Z,100336.19
2023-01-07T22:29:10.778Z,100332.09
2023-01-07T22:31:39.505Z,100338.31
2023-01-07T22:34:09.125Z,100321.34
2023-01-07T22:36:42.466Z,100317.00
2023-01-07T22:39:15.266Z,100322.66
2023-01-07T22:41:43.182Z,100338.78
2023-01-07T22:44:15.736Z,100340.66
2023-01-07T22:46:47.105Z,100335.28
2023-01-07T22:49:15.803Z,100338.22
2023-01-07T22:51:46.764Z,100342.78
2023-01-07T22:54:17.592Z,100328.63
2023-01-07T22:56:45.868Z,100333.91
2023-01-07T22:59:13.762Z,100340.09
2023-01-07T23:01:41.784Z,100338.47
2023-01-07T23:04:09.650Z,100331.44
2023-01-07T23:06:37.462Z,100333.09
2023-01-07T23:09:05.429Z,100322.69
2023-01-07T23:11:49.575Z,100341.97
2023-01-07T23:14:18.586Z,100327.59
2023-01-07T23:16:46.582Z,100323.94
2023-01-07T23:19:15.073Z,100327.44
2023-01-07T23:21:44.505Z,100322.06
2023-01-07T23:24:13.430Z,100323.13
2023-01-07T23:26:43.418Z,100312.34
2023-01-07T23:29:11.324Z,100316.09
2023-01-07T23:31:39.316Z,100310.47
2023-01-07T23:34:07.578Z,100319.63
2023-01-07T23:36:36.933Z,100298.44
2023-01-07T23:39:05.319Z,100312.84
2023-01-07T23:41:33.942Z,100314.47
2023-01-07T23:44:03.194Z,100306.41
2023-01-07T23:46:31.065Z,100313.09
2023-01-07T23:48:58.845Z,100298.81
2023-01-07T23:51:26.822Z,100300.69
2023-01-07T23:53:54.667Z,100307.09
2023-01-07T23:56:23.680Z,100310.63
2023-01-07T23:58:51.568Z,100296.56
